createdAt,value
2022-10-23T00:01:39.109Z,38.13
2022-10-23T00:04:41.834Z,41.20
2022-10-23T00:07:44.444Z,39.03
2022-10-23T00:10:47.430Z,36.35
2022-10-23T00:13:50.992Z,31.77
2022-10-23T00:16:53.679Z,32.90
2022-10-23T00:19:56.279Z,30.23
2022-10-23T00:22:59.047Z,27.90
2022-10-23T00:26:02.513Z,26.67
2022-10-23T00:29:05.445Z,28.93
2022-10-23T00:32:08.014Z,22.97
2022-10-23T00:35:13.620Z,25.48
2022-10-23T00:38:16.250Z,23.38
2022-10-23T00:41:22.896Z,21.73
2022-10-23T00:44:25.447Z,26.23
2022-10-23T00:47:28.059Z,24.07
2022-10-23T00:50:33.845Z,24.23
2022-10-23T00:53:36.453Z,25.98
2022-10-23T00:56:40.868Z,26.62
2022-10-23T00:59:43.743Z,26.23
2022-10-23T01:02:46.681Z,32.17
2022-10-23T01:06:02.491Z,32.60
2022-10-23T01:09:14.194Z,33.38
2022-10-23T01:12:44.941Z,29.17
2022-10-23T01:16:05.751Z,45.30
2022-10-23T01:19:21.691Z,31.13
2022-10-23T01:23:01.922Z,130.75
2022-10-23T01:26:34.324Z,68.45
2022-10-23T01:29:52.205Z,40.33
2022-10-23T01:32:59.801Z,171.10
2022-10-23T01:36:06.411Z,120.33
2022-10-23T01:39:12.846Z,139.55
2022-10-23T01:42:29.871Z,115.57
2022-10-23T01:45:42.881Z,234.27
2022-10-23T01:48:51.803Z,116.47
2022-10-23T01:51:58.414Z,194.97
2022-10-23T01:55:01.956Z,108.45
2022-10-23T01:58:05.139Z,121.47
2022-10-23T02:01:08.224Z,112.32
2022-10-23T02:04:13.872Z,87.53
2022-10-23T02:07:16.597Z,158.40
2022-10-23T02:10:20.214Z,146.90
2022-10-23T02:13:22.817Z,137.20
2022-10-23T02:16:43.359Z,52.05
2022-10-23T02:20:23.093Z,112.47
2022-10-23T02:23:25.626Z,128.13
2022-10-23T02:26:35.518Z,55.50
2022-10-23T02:29:41.833Z,86.10
2022-10-23T02:32:49.615Z,102.97
2022-10-23T02:35:52.651Z,121.00
2022-10-23T02:38:58.705Z,83.17
2022-10-23T02:42:05.820Z,82.80
2022-10-23T02:45:31.742Z,46.97
2022-10-23T02:48:43.704Z,122.20
2022-10-23T02:51:49.520Z,115.03
2022-10-23T02:55:23.571Z,54.37
2022-10-23T02:58:44.437Z,44.33
2022-10-23T03:01:53.757Z,29.83
2022-10-23T03:04:56.928Z,36.17
2022-10-23T03:07:59.631Z,84.53
2022-10-23T03:11:02.314Z,60.13
2022-10-23T03:14:06.111Z,47.33
2022-10-23T03:17:09.592Z,67.78
2022-10-23T03:20:12.382Z,95.50
2022-10-23T03:23:18.149Z,148.27
2022-10-23T03:26:20.858Z,180.93
2022-10-23T03:29:23.677Z,193.32
2022-10-23T03:32:26.315Z,219.77
2022-10-23T03:35:28.965Z,110.90
2022-10-23T03:38:32.194Z,151.77
2022-10-23T03:41:37.872Z,144.33
2022-10-23T03:44:40.442Z,71.47
2022-10-23T03:47:45.498Z,64.57
2022-10-23T03:50:48.160Z,28.62
2022-10-23T03:53:52.061Z,42.45
2022-10-23T03:56:57.719Z,164.93
2022-10-23T04:00:02.244Z,102.35
2022-10-23T04:03:07.808Z,59.75
2022-10-23T04:06:10.564Z,52.58
2022-10-23T04:12:23.700Z,89.87
2022-10-23T04:15:26.310Z,90.20
2022-10-23T04:18:30.083Z,110.35
2022-10-23T04:21:35.547Z,142.98
2022-10-23T04:24:38.249Z,94.57
2022-10-23T04:27:41.547Z,150.93
2022-10-23T04:30:46.121Z,129.10
2022-10-23T04:33:51.710Z,163.10
2022-10-23T04:36:54.447Z,124.25
2022-10-23T04:39:57.014Z,68.28
2022-10-23T04:42:59.638Z,65.83
2022-10-23T04:46:02.218Z,105.35
2022-10-23T04:49:04.811Z,84.30
2022-10-23T04:52:07.350Z,121.20
2022-10-23T04:55:10.255Z,120.10
2022-10-23T04:58:12.795Z,148.77
2022-10-23T05:01:15.467Z,84.78
2022-10-23T05:04:18.089Z,88.55
2022-10-23T05:10:24.144Z,106.50
2022-10-23T05:13:26.780Z,129.43
2022-10-23T05:16:41.864Z,95.78
2022-10-23T05:19:54.193Z,117.18
2022-10-23T05:22:57.691Z,90.53
2022-10-23T05:26:00.428Z,84.70
2022-10-23T05:29:03.167Z,78.17
2022-10-23T05:32:07.372Z,82.50
2022-10-23T05:35:13.255Z,92.30
2022-10-23T05:38:16.184Z,51.78
2022-10-23T05:41:18.961Z,34.08
2022-10-23T05:44:21.891Z,31.13
2022-10-23T05:47:24.502Z,38.50
2022-10-23T05:50:27.233Z,47.88
2022-10-23T05:53:29.808Z,49.63
2022-10-23T05:56:32.397Z,57.90
2022-10-23T05:59:35.364Z,60.43
2022-10-23T06:02:38.166Z,38.65
2022-10-23T06:05:40.812Z,38.30
2022-10-23T06:08:43.483Z,53.87
2022-10-23T06:11:46.244Z,41.65
2022-10-23T06:14:49.176Z,68.63
2022-10-23T06:17:51.752Z,39.58
2022-10-23T06:20:54.429Z,58.35
2022-10-23T06:23:57.086Z,40.20
2022-10-23T06:26:59.711Z,36.27
2022-10-23T06:30:02.568Z,30.93
2022-10-23T06:33:06.583Z,50.17
2022-10-23T06:36:10.847Z,45.70
2022-10-23T06:39:13.800Z,48.40
2022-10-23T06:42:16.482Z,25.60
2022-10-23T06:45:19.190Z,25.20
2022-10-23T06:48:21.779Z,43.45
2022-10-23T06:51:25.174Z,24.35
2022-10-23T06:54:27.922Z,22.20
2022-10-23T06:57:30.588Z,20.15
2022-10-23T07:00:33.274Z,16.40
2022-10-23T07:03:36.626Z,20.98
2022-10-23T07:06:39.403Z,19.05
2022-10-23T07:09:42.006Z,23.75
2022-10-23T07:12:45.632Z,20.13
2022-10-23T07:15:48.442Z,59.67
2022-10-23T07:19:04.776Z,77.90
2022-10-23T07:22:08.125Z,109.55
2022-10-23T07:25:12.364Z,53.40
2022-10-23T07:28:15.126Z,86.80
2022-10-23T07:31:18.395Z,82.57
2022-10-23T07:34:21.252Z,139.32
2022-10-23T07:37:24.021Z,70.97
2022-10-23T07:40:26.731Z,101.93
2022-10-23T07:43:29.726Z,75.40
2022-10-23T07:46:32.484Z,162.27
2022-10-23T07:49:35.235Z,77.95
2022-10-23T07:52:37.987Z,31.73
2022-10-23T07:55:40.560Z,47.33
2022-10-23T07:58:44.184Z,53.25
2022-10-23T08:01:50.550Z,77.13
2022-10-23T08:04:55.397Z,82.43
2022-10-23T08:07:58.697Z,166.43
2022-10-23T08:11:06.533Z,186.43
2022-10-23T08:14:15.810Z,100.55
2022-10-23T08:17:22.219Z,68.93
2022-10-23T08:20:26.188Z,52.35
2022-10-23T08:23:30.474Z,46.88
2022-10-23T08:26:33.760Z,23.77
2022-10-23T08:29:36.862Z,21.65
2022-10-23T08:32:39.573Z,26.07
2022-10-23T08:35:42.765Z,24.77
2022-10-23T08:38:45.666Z,19.87
2022-10-23T08:41:50.904Z,18.27
2022-10-23T08:45:23.103Z,14.05
2022-10-23T08:48:33.874Z,15.87
2022-10-23T08:51:45.365Z,16.62
2022-10-23T08:54:57.550Z,15.32
2022-10-23T08:58:07.273Z,15.40
2022-10-23T09:01:41.159Z,12.20
2022-10-23T09:04:46.780Z,13.23
2022-10-23T09:08:00.493Z,13.02
2022-10-23T09:11:19.680Z,14.23
2022-10-23T09:14:41.063Z,12.85
2022-10-23T09:17:44.909Z,12.98
2022-10-23T09:20:47.893Z,12.13
2022-10-23T09:23:50.549Z,14.50
2022-10-23T09:26:54.806Z,13.88
2022-10-23T09:29:58.547Z,12.93
2022-10-23T09:33:14.381Z,12.77
2022-10-23T09:36:21.489Z,12.30
2022-10-23T09:39:31.107Z,12.65
2022-10-23T09:42:33.882Z,12.75
2022-10-23T09:45:38.318Z,12.45
2022-10-23T09:48:42.593Z,13.48
2022-10-23T09:51:53.771Z,12.40
2022-10-23T09:54:59.547Z,12.40
2022-10-23T09:58:02.150Z,13.43
2022-10-23T10:01:05.097Z,12.32
2022-10-23T10:04:07.843Z,13.55
2022-10-23T10:07:22.906Z,15.87
2022-10-23T10:10:28.693Z,12.27
2022-10-23T10:13:34.763Z,16.08
2022-10-23T10:17:01.404Z,13.77
2022-10-23T10:20:12.575Z,12.13
2022-10-23T10:23:33.737Z,12.10
2022-10-23T10:26:52.123Z,13.07
2022-10-23T10:30:24.506Z,12.63
2022-10-23T10:33:46.188Z,13.93
2022-10-23T10:37:11.678Z,14.55
2022-10-23T10:40:26.932Z,14.47
2022-10-23T10:43:29.697Z,14.18
2022-10-23T10:46:58.757Z,15.82
2022-10-23T10:50:08.176Z,14.10
2022-10-23T10:53:31.848Z,14.38
2022-10-23T10:56:40.212Z,14.73
2022-10-23T10:59:44.853Z,15.18
2022-10-23T11:02:58.763Z,14.63
2022-10-23T11:06:03.096Z,14.60
2022-10-23T11:09:20.540Z,14.90
2022-10-23T11:12:27.123Z,13.43
2022-10-23T11:15:36.145Z,14.30
2022-10-23T11:18:41.899Z,15.23
2022-10-23T11:21:46.252Z,14.65
2022-10-23T11:25:13.789Z,14.77
2022-10-23T11:28:50.714Z,16.53
2022-10-23T11:32:14.779Z,14.95
2022-10-23T11:35:52.186Z,14.80
2022-10-23T11:38:59.349Z,14.32
2022-10-23T11:42:05.194Z,14.50
2022-10-23T11:45:31.202Z,15.80
2022-10-23T11:48:40.862Z,14.38
2022-10-23T11:51:43.519Z,15.20
2022-10-23T11:54:46.208Z,14.00
2022-10-23T11:58:07.344Z,15.52
2022-10-23T12:01:30.295Z,14.77
2022-10-23T12:04:36.200Z,14.70
2022-10-23T12:07:42.273Z,14.82
2022-10-23T12:10:47.799Z,15.05
2022-10-23T12:13:53.834Z,13.57
2022-10-23T12:17:02.927Z,14.67
2022-10-23T12:20:08.598Z,14.35
2022-10-23T12:23:11.261Z,15.82
2022-10-23T12:26:16.965Z,14.40
2022-10-23T12:29:41.129Z,14.20
2022-10-23T12:33:02.112Z,15.97
2022-10-23T12:36:17.419Z,15.20
2022-10-23T12:39:37.516Z,15.30
2022-10-23T12:42:40.291Z,15.40
2022-10-23T12:45:43.870Z,14.02
2022-10-23T12:48:51.195Z,12.87
2022-10-23T12:52:07.228Z,12.70
2022-10-23T12:55:14.587Z,13.55
2022-10-23T12:58:34.928Z,13.25
2022-10-23T13:01:40.507Z,13.98
2022-10-23T13:04:45.624Z,14.93
2022-10-23T13:07:48.720Z,13.68
2022-10-23T13:10:52.257Z,13.60
2022-10-23T13:13:55.199Z,13.75
2022-10-23T13:17:07.094Z,13.43
2022-10-23T13:20:19.241Z,13.13
2022-10-23T13:23:27.252Z,13.98
2022-10-23T13:26:45.458Z,14.15
2022-10-23T13:29:48.534Z,13.93
2022-10-23T13:32:56.367Z,12.45
2022-10-23T13:36:20.456Z,14.93
2022-10-23T13:39:30.456Z,13.10
2022-10-23T13:42:36.230Z,16.75
2022-10-23T13:45:42.531Z,14.00
2022-10-23T13:48:46.531Z,15.43
2022-10-23T13:51:54.578Z,14.83
2022-10-23T13:54:58.288Z,13.20
2022-10-23T13:58:03.931Z,7.90
2022-10-23T14:01:22.363Z,8.18
2022-10-23T14:04:28.414Z,8.35
2022-10-23T14:07:32.190Z,7.67
2022-10-23T14:10:38.412Z,8.68
2022-10-23T14:13:41.594Z,7.18
2022-10-23T14:16:44.224Z,7.40
2022-10-23T14:19:47.651Z,6.95
2022-10-23T14:22:50.488Z,9.23
2022-10-23T14:25:54.368Z,8.13
2022-10-23T14:29:02.374Z,6.70
2022-10-23T14:32:12.600Z,7.20
2022-10-23T14:35:15.289Z,8.07
2022-10-23T14:38:18.002Z,7.30
2022-10-23T14:41:20.709Z,8.88
2022-10-23T14:44:26.600Z,9.80
2022-10-23T14:47:30.230Z,7.50
2022-10-23T14:50:36.865Z,7.68
2022-10-23T14:53:39.634Z,8.23
2022-10-23T14:56:42.294Z,8.25
2022-10-23T14:59:45.447Z,8.35
2022-10-23T15:02:48.323Z,8.52
2022-10-23T15:05:54.239Z,8.60
2022-10-23T15:08:57.289Z,10.27
2022-10-23T15:12:00.306Z,7.75
2022-10-23T15:15:06.022Z,10.70
2022-10-23T15:18:09.650Z,9.95
2022-10-23T15:21:12.657Z,8.20
2022-10-23T15:24:17.245Z,8.77
2022-10-23T15:27:20.115Z,9.93
2022-10-23T15:30:26.685Z,10.35
2022-10-23T15:33:29.750Z,7.72
2022-10-23T15:36:35.653Z,10.02
2022-10-23T15:39:39.043Z,9.43
2022-10-23T15:42:42.502Z,9.43
2022-10-23T15:45:45.980Z,9.82
2022-10-23T15:48:48.932Z,10.27
2022-10-23T15:51:54.750Z,9.93
2022-10-23T15:54:57.453Z,7.90
2022-10-23T15:58:04.247Z,8.32
2022-10-23T16:01:07.330Z,8.18
2022-10-23T16:04:13.058Z,11.07
2022-10-23T16:07:15.770Z,10.98
2022-10-23T16:10:19.235Z,9.17
2022-10-23T16:13:22.779Z,9.90
2022-10-23T16:16:25.719Z,10.75
2022-10-23T16:19:28.506Z,10.98
2022-10-23T16:22:31.338Z,9.30
2022-10-23T16:25:37.901Z,10.43
2022-10-23T16:28:47.141Z,11.12
2022-10-23T16:31:53.674Z,9.80
2022-10-23T16:34:58.999Z,9.50
2022-10-23T16:38:02.463Z,12.00
2022-10-23T16:41:07.134Z,13.10
2022-10-23T16:44:11.023Z,10.38
2022-10-23T16:47:14.117Z,16.40
2022-10-23T16:50:17.126Z,17.10
2022-10-23T16:53:19.959Z,20.70
2022-10-23T16:56:25.631Z,19.00
2022-10-23T16:59:29.751Z,20.05
2022-10-23T17:02:33.961Z,23.35
2022-10-23T17:05:40.540Z,24.75
2022-10-23T17:08:44.277Z,24.77
2022-10-23T17:11:48.199Z,24.93
2022-10-23T17:14:51.245Z,31.70
2022-10-23T17:17:54.311Z,30.55
2022-10-23T17:20:57.682Z,34.22
2022-10-23T17:24:03.683Z,39.22
2022-10-23T17:27:06.901Z,42.23
2022-10-23T17:30:16.447Z,25.37
2022-10-23T17:33:20.824Z,21.35
2022-10-23T17:36:29.899Z,21.20
2022-10-23T17:39:34.964Z,26.23
2022-10-23T17:42:38.166Z,24.13
2022-10-23T17:45:45.562Z,26.58
2022-10-23T17:48:48.940Z,21.45
2022-10-23T17:51:56.902Z,26.23
2022-10-23T17:55:00.702Z,18.15
2022-10-23T17:58:04.464Z,18.50
2022-10-23T18:01:22.326Z,25.92
2022-10-23T18:04:27.166Z,23.45
2022-10-23T18:07:33.092Z,16.67
2022-10-23T18:10:37.087Z,17.02
2022-10-23T18:13:40.301Z,18.70
2022-10-23T18:16:46.215Z,16.75
2022-10-23T18:19:52.997Z,14.98
2022-10-23T18:23:00.465Z,15.75
2022-10-23T18:26:07.221Z,16.87
2022-10-23T18:29:12.298Z,16.10
2022-10-23T18:32:15.546Z,16.55
2022-10-23T18:35:19.649Z,16.77
2022-10-23T18:38:22.761Z,17.92
2022-10-23T18:41:27.335Z,14.77
2022-10-23T18:44:30.810Z,14.47
2022-10-23T18:47:34.649Z,16.48
2022-10-23T18:50:38.627Z,14.77
2022-10-23T18:53:42.357Z,14.70
2022-10-23T18:56:45.960Z,16.30
2022-10-23T18:59:51.221Z,16.37
2022-10-23T19:02:57.413Z,17.05
2022-10-23T19:06:00.735Z,16.55
2022-10-23T19:09:09.192Z,16.55
2022-10-23T19:15:20.879Z,16.00
2022-10-23T19:18:34.758Z,22.20
2022-10-23T19:21:40.431Z,18.65
2022-10-23T19:24:53.751Z,18.35
2022-10-23T19:27:58.358Z,18.17
2022-10-23T19:31:01.712Z,19.70
2022-10-23T19:34:05.064Z,18.70
2022-10-23T19:37:08.203Z,17.90
2022-10-23T19:40:12.322Z,18.10
2022-10-23T19:43:16.399Z,18.75
2022-10-23T19:46:19.853Z,21.30
2022-10-23T19:49:24.091Z,18.30
2022-10-23T19:52:27.424Z,18.17
2022-10-23T19:55:30.437Z,19.62
2022-10-23T19:58:34.474Z,17.92
2022-10-23T20:01:37.709Z,19.47
2022-10-23T20:04:40.690Z,19.65
2022-10-23T20:07:47.920Z,22.42
2022-10-23T20:10:50.910Z,18.65
2022-10-23T20:13:59.120Z,22.62
2022-10-23T20:17:02.756Z,19.67
2022-10-23T20:20:06.662Z,20.05
2022-10-23T20:23:09.706Z,19.55
2022-10-23T20:26:18.412Z,20.17
2022-10-23T20:29:22.566Z,17.87
2022-10-23T20:32:28.877Z,18.43
2022-10-23T20:35:38.614Z,19.37
2022-10-23T20:38:41.759Z,17.35
2022-10-23T20:41:45.380Z,18.73
2022-10-23T20:44:48.454Z,16.65
2022-10-23T20:47:51.318Z,17.73
2022-10-23T20:50:54.392Z,16.85
2022-10-23T20:53:57.419Z,17.42
2022-10-23T20:57:00.564Z,17.05
2022-10-23T21:00:07.311Z,16.73
2022-10-23T21:03:10.291Z,17.17
2022-10-23T21:06:15.423Z,16.98
2022-10-23T21:09:18.709Z,15.05
2022-10-23T21:12:21.373Z,16.50
2022-10-23T21:15:24.062Z,16.42
2022-10-23T21:18:45.001Z,16.77
2022-10-23T21:21:59.049Z,15.65
2022-10-23T21:25:01.900Z,16.75
2022-10-23T21:28:04.749Z,15.82
2022-10-23T21:31:13.193Z,15.32
2022-10-23T21:34:16.252Z,16.67
2022-10-23T21:37:18.909Z,17.23
2022-10-23T21:40:21.494Z,15.50
2022-10-23T21:43:27.293Z,16.45
2022-10-23T21:46:31.016Z,18.58
2022-10-23T21:49:34.483Z,16.80
2022-10-23T21:52:40.656Z,20.08
2022-10-23T21:55:43.230Z,16.37
2022-10-23T21:58:45.876Z,16.90
2022-10-23T22:01:49.372Z,17.52
2022-10-23T22:04:52.427Z,16.37
2022-10-23T22:07:55.017Z,17.70
2022-10-23T22:10:59.103Z,18.40
2022-10-23T22:14:02.313Z,17.60
2022-10-23T22:17:05.378Z,19.00
2022-10-23T22:20:08.638Z,16.43
2022-10-23T22:23:11.199Z,17.45
2022-10-23T22:26:20.393Z,17.05
2022-10-23T22:29:26.338Z,17.55
2022-10-23T22:32:30.527Z,16.05
2022-10-23T22:35:33.152Z,17.70
2022-10-23T22:38:35.687Z,16.92
2022-10-23T22:41:38.618Z,19.58
2022-10-23T22:44:41.225Z,20.60
2022-10-23T22:47:43.925Z,18.67
2022-10-23T22:50:47.148Z,15.40
2022-10-23T22:53:49.742Z,17.87
2022-10-23T22:56:52.483Z,20.12
2022-10-23T22:59:56.435Z,16.40
2022-10-23T23:02:59.645Z,18.15
2022-10-23T23:06:03.172Z,17.67
2022-10-23T23:09:05.787Z,16.73
2022-10-23T23:12:10.413Z,16.52
2022-10-23T23:15:13.040Z,15.18
2022-10-23T23:18:19.108Z,18.15
2022-10-23T23:21:22.253Z,17.13
2022-10-23T23:24:25.513Z,16.35
2022-10-23T23:27:28.169Z,18.33
2022-10-23T23:30:30.897Z,20.15
2022-10-23T23:33:33.723Z,18.17
2022-10-23T23:36:36.480Z,19.77
2022-10-23T23:39:39.073Z,19.73
2022-10-23T23:42:41.990Z,19.70
2022-10-23T23:45:44.787Z,21.87
2022-10-23T23:48:49.249Z,19.95
2022-10-23T23:51:52.552Z,21.77
2022-10-23T23:54:55.252Z,20.17
2022-10-23T23:57:57.903Z,20.08
